Chumstick, Washington
Current Conditions -  °F | °C
As of 10:55 PM on Wednesday 17 Dec 2014 (Local Time) from KEAT Reporting Station
Overcast Overcast  
Wind Chill: 37°   Ceiling: 2700
Heat Index: 37°   Visibility: 10mi
Dew Point: 35°   Wind: 0mph
Humidity: 93%   Direction: NA
Pressure: 29.97"   Gusts: NA
Location:  47.7866°N, 120.856°W
Report Text: KEAT 180655Z AUTO 00000KT 10SM OVC027 03/02 A2997 RMK AO2 SLP159 T00280017
Loading
Personal Weather Stations






























Interactive Weather Map New forecast layout! Learn more

10-Day Weather Forecast

Advertisements
Track Severe Weather on mobile